createdAt,value
2023-05-23T00:01:55.233Z,10.65
2023-05-23T00:04:22.108Z,11.52
2023-05-23T00:06:50.553Z,10.27
2023-05-23T00:09:17.321Z,10.18
2023-05-23T00:11:45.228Z,10.43
2023-05-23T00:14:13.651Z,10.90
2023-05-23T00:16:41.500Z,10.32
2023-05-23T00:19:09.506Z,11.27
2023-05-23T00:21:36.235Z,12.05
2023-05-23T00:24:02.779Z,11.23
2023-05-23T00:26:32.154Z,11.63
2023-05-23T00:28:58.853Z,11.45
2023-05-23T00:31:25.467Z,10.90
2023-05-23T00:33:52.033Z,10.32
2023-05-23T00:36:19.017Z,10.82
2023-05-23T00:38:49.367Z,11.10
2023-05-23T00:41:16.276Z,9.80
2023-05-23T00:43:42.989Z,10.63
2023-05-23T00:46:10.606Z,11.93
2023-05-23T00:48:38.613Z,11.45
2023-05-23T00:51:05.519Z,12.02
2023-05-23T00:53:32.043Z,12.00
2023-05-23T00:55:58.577Z,11.57
2023-05-23T00:58:25.165Z,13.40
2023-05-23T01:00:54.394Z,10.45
2023-05-23T01:03:21.140Z,12.02
2023-05-23T01:05:47.853Z,11.00
2023-05-23T01:08:15.815Z,11.43
2023-05-23T01:10:42.552Z,11.80
2023-05-23T01:13:22.227Z,12.55
2023-05-23T01:16:13.717Z,11.40
2023-05-23T01:18:47.658Z,12.05
2023-05-23T01:21:17.944Z,12.55
2023-05-23T01:24:06.122Z,12.35
2023-05-23T01:27:05.347Z,12.98
2023-05-23T01:29:38.074Z,12.80
2023-05-23T01:34:34.466Z,12.20
2023-05-23T01:37:01.003Z,11.60
2023-05-23T01:39:27.551Z,11.35
2023-05-23T01:41:54.051Z,12.35
2023-05-23T01:44:21.406Z,12.43
2023-05-23T01:46:48.058Z,12.32
2023-05-23T01:49:14.675Z,12.43
2023-05-23T01:51:41.271Z,12.55
2023-05-23T01:54:07.794Z,12.57
2023-05-23T01:56:34.473Z,12.18
2023-05-23T01:59:02.018Z,11.45
2023-05-23T02:01:28.583Z,11.38
2023-05-23T02:03:55.572Z,12.98
2023-05-23T02:06:22.105Z,12.68
2023-05-23T02:08:48.592Z,11.85
2023-05-23T02:11:15.985Z,12.35
2023-05-23T02:13:42.532Z,12.77
2023-05-23T02:16:09.106Z,12.70
2023-05-23T02:18:38.250Z,12.13
2023-05-23T02:21:06.029Z,11.05
2023-05-23T02:23:32.701Z,12.55
2023-05-23T02:25:59.251Z,11.20
2023-05-23T02:28:25.994Z,13.50
2023-05-23T02:30:52.587Z,12.52
2023-05-23T02:33:19.741Z,12.45
2023-05-23T02:35:46.420Z,11.60
2023-05-23T02:38:13.035Z,11.55
2023-05-23T02:40:39.534Z,12.57
2023-05-23T02:43:06.063Z,13.85
2023-05-23T02:45:32.785Z,12.02
2023-05-23T02:47:59.337Z,12.23
2023-05-23T02:50:26.167Z,12.48
2023-05-23T02:52:52.706Z,12.95
2023-05-23T02:55:19.300Z,11.63
2023-05-23T02:57:46.163Z,12.50
2023-05-23T03:00:13.357Z,12.68
2023-05-23T03:02:39.956Z,13.30
2023-05-23T03:05:07.116Z,13.80
2023-05-23T03:07:33.917Z,12.63
2023-05-23T03:10:01.214Z,12.02
2023-05-23T03:12:30.591Z,11.90
2023-05-23T03:14:57.089Z,12.52
2023-05-23T03:17:25.514Z,12.30
2023-05-23T03:19:52.058Z,13.02
2023-05-23T03:22:18.571Z,13.68
2023-05-23T03:24:45.075Z,14.27
2023-05-23T03:27:11.660Z,14.35
2023-05-23T03:29:38.268Z,13.85
2023-05-23T03:32:05.109Z,14.52
2023-05-23T03:34:33.103Z,13.35
2023-05-23T03:37:00.020Z,13.90
2023-05-23T03:39:26.585Z,14.18
2023-05-23T03:41:53.317Z,13.40
2023-05-23T03:44:19.987Z,13.50
2023-05-23T03:46:46.484Z,13.85
2023-05-23T03:49:13.265Z,13.82
2023-05-23T03:51:39.766Z,14.07
2023-05-23T03:54:06.480Z,14.43
2023-05-23T03:56:33.241Z,15.38
2023-05-23T03:59:00.032Z,14.82
2023-05-23T04:01:27.745Z,13.32
2023-05-23T04:03:54.714Z,13.90
2023-05-23T04:06:22.759Z,13.98
2023-05-23T04:08:49.268Z,13.35
2023-05-23T04:11:15.873Z,13.27
2023-05-23T04:13:42.752Z,14.98
2023-05-23T04:16:09.356Z,14.50
2023-05-23T04:18:39.132Z,13.85
2023-05-23T04:21:05.804Z,13.10
2023-05-23T04:23:32.387Z,14.00
2023-05-23T04:25:59.374Z,13.82
2023-05-23T04:28:28.823Z,13.95
2023-05-23T04:30:56.356Z,14.50
2023-05-23T04:33:23.074Z,14.20
2023-05-23T04:35:49.710Z,13.40
2023-05-23T04:38:17.142Z,13.30
2023-05-23T04:40:43.773Z,13.85
2023-05-23T04:43:14.217Z,14.20
2023-05-23T04:45:41.694Z,14.63
2023-05-23T04:48:08.676Z,14.75
2023-05-23T04:50:35.935Z,14.38
2023-05-23T04:53:02.455Z,13.45
2023-05-23T04:55:29.342Z,13.77
2023-05-23T04:57:56.276Z,13.20
2023-05-23T05:00:22.786Z,13.93
2023-05-23T05:02:49.435Z,13.65
2023-05-23T05:05:16.080Z,13.32
2023-05-23T05:07:42.592Z,13.13
2023-05-23T05:10:16.805Z,12.60
2023-05-23T05:12:46.947Z,13.27
2023-05-23T05:15:13.700Z,13.00
2023-05-23T05:17:40.756Z,12.20
2023-05-23T05:20:08.673Z,12.25
2023-05-23T05:22:36.463Z,12.20
2023-05-23T05:25:03.809Z,12.15
2023-05-23T05:27:30.326Z,11.57
2023-05-23T05:30:04.614Z,10.85
2023-05-23T05:32:33.699Z,10.88
2023-05-23T05:35:00.952Z,9.80
2023-05-23T05:37:27.868Z,10.38
2023-05-23T05:39:55.010Z,9.95
2023-05-23T05:42:22.055Z,9.63
2023-05-23T05:44:49.064Z,9.55
2023-05-23T05:47:15.787Z,10.77
2023-05-23T05:49:42.313Z,10.02
2023-05-23T05:52:08.894Z,10.13
2023-05-23T05:54:36.133Z,10.55
2023-05-23T05:57:02.728Z,10.15
2023-05-23T05:59:31.125Z,10.02
2023-05-23T06:01:58.981Z,10.25
2023-05-23T06:04:25.565Z,10.05
2023-05-23T06:06:52.194Z,10.30
2023-05-23T06:09:18.750Z,9.85
2023-05-23T06:11:45.329Z,9.30
2023-05-23T06:14:11.950Z,10.15
2023-05-23T06:16:38.963Z,10.35
2023-05-23T06:19:06.163Z,9.60
2023-05-23T06:21:33.158Z,9.38
2023-05-23T06:23:59.670Z,9.60
2023-05-23T06:26:26.869Z,9.15
2023-05-23T06:28:53.471Z,9.65
2023-05-23T06:31:20.054Z,9.43
2023-05-23T06:33:46.615Z,9.75
2023-05-23T06:36:13.188Z,9.40
2023-05-23T06:38:39.730Z,9.38
2023-05-23T06:41:07.293Z,9.25
2023-05-23T06:43:33.976Z,9.75
2023-05-23T06:46:00.598Z,9.05
2023-05-23T06:48:27.111Z,8.63
2023-05-23T06:50:53.678Z,8.50
2023-05-23T06:53:20.250Z,8.63
2023-05-23T06:55:47.112Z,8.55
2023-05-23T06:58:14.672Z,8.25
2023-05-23T07:00:41.379Z,8.65
2023-05-23T07:03:08.210Z,8.93
2023-05-23T07:05:37.399Z,8.90
2023-05-23T07:08:07.303Z,8.25
2023-05-23T07:10:35.245Z,8.70
2023-05-23T07:13:01.828Z,7.72
2023-05-23T07:15:28.395Z,7.95
2023-05-23T07:17:54.983Z,8.23
2023-05-23T07:20:21.937Z,8.32
2023-05-23T07:22:48.483Z,7.88
2023-05-23T07:25:15.057Z,8.50
2023-05-23T07:27:41.642Z,8.13
2023-05-23T07:30:09.809Z,8.70
2023-05-23T07:32:36.717Z,8.00
2023-05-23T07:35:03.370Z,7.78
2023-05-23T07:37:29.886Z,7.90
2023-05-23T07:39:56.390Z,7.82
2023-05-23T07:42:22.947Z,8.02
2023-05-23T07:44:49.469Z,7.72
2023-05-23T07:47:16.028Z,7.32
2023-05-23T07:49:42.642Z,8.68
2023-05-23T07:52:09.193Z,7.40
2023-05-23T07:54:35.769Z,7.75
2023-05-23T07:57:02.385Z,8.55
2023-05-23T07:59:30.116Z,7.80
2023-05-23T08:01:56.729Z,8.20
2023-05-23T08:04:23.350Z,8.45
2023-05-23T08:07:04.494Z,8.00
2023-05-23T08:09:31.889Z,8.23
2023-05-23T08:11:58.436Z,7.75
2023-05-23T08:14:29.430Z,8.02
2023-05-23T08:17:05.221Z,7.25
2023-05-23T08:19:32.267Z,6.90
2023-05-23T08:21:58.881Z,6.32
2023-05-23T08:24:25.615Z,5.85
2023-05-23T08:26:52.141Z,6.68
2023-05-23T08:29:18.728Z,6.72
2023-05-23T08:31:45.368Z,7.18
2023-05-23T08:34:12.451Z,7.63
2023-05-23T08:36:39.940Z,7.28
2023-05-23T08:39:06.891Z,7.07
2023-05-23T08:41:33.525Z,6.90
2023-05-23T08:44:00.047Z,7.10
2023-05-23T08:46:27.327Z,6.90
2023-05-23T08:48:54.894Z,6.20
2023-05-23T08:51:23.928Z,6.25
2023-05-23T08:53:53.012Z,6.80
2023-05-23T08:56:20.018Z,5.97
2023-05-23T08:58:47.653Z,6.55
2023-05-23T09:01:14.666Z,6.72
2023-05-23T09:03:44.370Z,6.75
2023-05-23T09:06:11.074Z,6.50
2023-05-23T09:08:37.785Z,6.10
2023-05-23T09:11:05.968Z,6.93
2023-05-23T09:13:33.025Z,7.63
2023-05-23T09:16:02.406Z,6.75
2023-05-23T09:18:42.368Z,6.53
2023-05-23T09:21:09.735Z,7.28
2023-05-23T09:23:36.992Z,6.15
2023-05-23T09:26:07.825Z,6.38
2023-05-23T09:28:34.828Z,6.63
2023-05-23T09:31:05.302Z,6.72
2023-05-23T09:33:47.861Z,6.47
2023-05-23T09:38:41.702Z,7.40
2023-05-23T09:41:08.306Z,6.60
2023-05-23T09:43:34.922Z,6.65
2023-05-23T09:46:09.337Z,6.75
2023-05-23T09:48:36.026Z,7.25
2023-05-23T09:51:09.108Z,8.18
2023-05-23T09:53:35.917Z,7.63
2023-05-23T09:56:03.063Z,7.43
2023-05-23T09:58:32.629Z,6.93
2023-05-23T10:01:03.797Z,7.22
2023-05-23T10:03:35.643Z,7.45
2023-05-23T10:06:10.695Z,7.15
2023-05-23T10:08:39.474Z,6.88
2023-05-23T10:11:16.474Z,7.25
2023-05-23T10:13:47.168Z,7.47
2023-05-23T10:16:55.213Z,7.40
2023-05-23T10:19:28.090Z,8.15
2023-05-23T10:21:59.484Z,6.88
2023-05-23T10:24:27.385Z,7.37
2023-05-23T10:26:55.216Z,7.07
2023-05-23T10:29:25.172Z,8.10
2023-05-23T10:31:52.133Z,7.53
2023-05-23T10:34:48.069Z,7.15
2023-05-23T10:37:21.198Z,7.82
2023-05-23T10:40:08.221Z,7.95
2023-05-23T10:42:52.179Z,7.88
2023-05-23T10:45:22.478Z,7.25
2023-05-23T10:47:51.146Z,7.45
2023-05-23T10:50:32.156Z,7.18
2023-05-23T10:53:00.221Z,7.40
2023-05-23T10:55:28.057Z,7.60
2023-05-23T10:58:30.526Z,8.18
2023-05-23T11:00:59.682Z,9.10
2023-05-23T11:03:49.840Z,9.10
2023-05-23T11:06:44.400Z,8.85
2023-05-23T11:09:19.319Z,8.32
2023-05-23T11:11:52.369Z,8.05
2023-05-23T11:14:19.451Z,8.52
2023-05-23T11:16:47.265Z,7.53
2023-05-23T11:19:23.173Z,7.30
2023-05-23T11:22:00.208Z,8.02
2023-05-23T11:24:52.526Z,7.57
2023-05-23T11:27:32.027Z,7.80
2023-05-23T11:29:59.105Z,8.45
2023-05-23T11:32:28.136Z,7.40
2023-05-23T11:34:54.711Z,7.00
2023-05-23T11:37:21.340Z,7.18
2023-05-23T11:39:47.850Z,7.05
2023-05-23T11:42:14.363Z,8.32
2023-05-23T11:44:40.917Z,7.57
2023-05-23T11:47:08.369Z,8.00
2023-05-23T11:49:36.397Z,9.18
2023-05-23T11:52:03.150Z,8.35
2023-05-23T11:54:29.723Z,8.07
2023-05-23T11:56:56.296Z,7.22
2023-05-23T11:59:26.223Z,7.18
2023-05-23T12:01:53.075Z,6.60
2023-05-23T12:04:19.684Z,6.57
2023-05-23T12:06:47.312Z,6.50
2023-05-23T12:09:14.086Z,6.60
2023-05-23T12:11:41.195Z,6.82
2023-05-23T12:14:08.506Z,7.00
2023-05-23T12:16:36.114Z,6.72
2023-05-23T12:19:04.834Z,6.38
2023-05-23T12:21:41.849Z,6.00
2023-05-23T12:24:21.400Z,6.80
2023-05-23T12:26:49.132Z,5.90
2023-05-23T12:29:16.491Z,6.85
2023-05-23T12:31:43.046Z,5.93
2023-05-23T12:34:10.857Z,6.15
2023-05-23T12:36:48.040Z,6.68
2023-05-23T12:39:15.921Z,6.22
2023-05-23T12:41:43.500Z,5.78
2023-05-23T12:44:10.074Z,6.28
2023-05-23T12:46:37.103Z,5.97
2023-05-23T12:49:03.828Z,5.75
2023-05-23T12:51:30.650Z,6.15
2023-05-23T12:53:57.265Z,6.15
2023-05-23T12:56:23.863Z,5.57
2023-05-23T12:58:50.488Z,5.88
2023-05-23T13:01:17.152Z,5.30
2023-05-23T13:03:43.725Z,5.82
2023-05-23T13:06:10.307Z,5.85
2023-05-23T13:08:37.162Z,5.60
2023-05-23T13:11:03.918Z,4.88
2023-05-23T13:13:30.568Z,5.07
2023-05-23T13:15:57.228Z,6.05
2023-05-23T13:18:23.895Z,5.10
2023-05-23T13:20:50.497Z,5.50
2023-05-23T13:23:17.063Z,5.40
2023-05-23T13:25:43.766Z,5.72
2023-05-23T13:28:10.566Z,5.43
2023-05-23T13:30:37.153Z,5.78
2023-05-23T13:33:03.809Z,6.43
2023-05-23T13:35:30.455Z,5.05
2023-05-23T13:37:57.350Z,5.82
2023-05-23T13:40:23.959Z,5.32
2023-05-23T13:42:51.285Z,5.03
2023-05-23T13:45:18.918Z,5.18
2023-05-23T13:47:46.438Z,4.85
2023-05-23T13:50:12.958Z,5.07
2023-05-23T13:52:42.925Z,5.22
2023-05-23T13:55:10.880Z,4.87
2023-05-23T13:57:37.383Z,5.10
2023-05-23T14:00:04.330Z,4.60
2023-05-23T14:02:32.106Z,5.13
2023-05-23T14:04:58.889Z,4.07
2023-05-23T14:07:25.659Z,3.95
2023-05-23T14:09:52.189Z,4.50
2023-05-23T14:12:18.697Z,4.30
2023-05-23T14:14:45.360Z,4.18
2023-05-23T14:17:16.072Z,4.07
2023-05-23T14:19:42.969Z,4.15
2023-05-23T14:22:10.019Z,4.28
2023-05-23T14:24:36.640Z,4.00
2023-05-23T14:27:03.724Z,3.80
2023-05-23T14:29:30.257Z,3.55
2023-05-23T14:31:56.846Z,3.65
2023-05-23T14:34:23.390Z,3.83
2023-05-23T14:36:50.285Z,3.40
2023-05-23T14:39:16.877Z,3.40
2023-05-23T14:41:43.512Z,3.90
2023-05-23T14:44:10.121Z,3.25
2023-05-23T14:46:37.555Z,3.25
2023-05-23T14:49:04.198Z,3.20
2023-05-23T14:51:44.747Z,3.17
2023-05-23T14:54:13.027Z,3.20
2023-05-23T14:56:41.157Z,2.80
2023-05-23T14:59:08.139Z,2.90
2023-05-23T15:01:35.354Z,3.35
2023-05-23T15:04:05.684Z,2.83
2023-05-23T15:06:32.323Z,3.28
2023-05-23T15:08:58.858Z,3.25
2023-05-23T15:11:27.413Z,3.03
2023-05-23T15:13:54.294Z,2.70
2023-05-23T15:16:20.937Z,2.60
2023-05-23T15:18:47.704Z,2.40
2023-05-23T15:21:14.438Z,2.47
2023-05-23T15:23:41.509Z,2.75
2023-05-23T15:26:08.379Z,2.67
2023-05-23T15:28:34.897Z,3.08
2023-05-23T15:31:01.404Z,3.00
2023-05-23T15:33:28.042Z,3.08
2023-05-23T15:35:54.933Z,3.00
2023-05-23T15:38:21.470Z,2.65
2023-05-23T15:40:49.084Z,2.17
2023-05-23T15:43:15.652Z,2.50
2023-05-23T15:45:42.481Z,2.13
2023-05-23T15:48:09.283Z,2.05
2023-05-23T15:50:35.902Z,2.35
2023-05-23T15:53:02.425Z,2.08
2023-05-23T15:55:29.067Z,2.10
2023-05-23T15:57:55.633Z,2.28
2023-05-23T16:00:22.230Z,2.38
2023-05-23T16:02:48.820Z,2.17
2023-05-23T16:05:15.344Z,2.10
2023-05-23T16:07:41.858Z,2.10
2023-05-23T16:10:08.698Z,2.08
2023-05-23T16:12:35.418Z,2.28
2023-05-23T16:15:01.948Z,2.28
2023-05-23T16:17:28.499Z,2.10
2023-05-23T16:19:55.094Z,2.00
2023-05-23T16:22:21.635Z,2.05
2023-05-23T16:24:48.187Z,2.10
2023-05-23T16:27:14.700Z,2.42
2023-05-23T16:29:41.242Z,2.30
2023-05-23T16:32:08.118Z,2.22
2023-05-23T16:34:35.277Z,2.50
2023-05-23T16:37:01.806Z,2.05
2023-05-23T16:39:28.694Z,2.22
2023-05-23T16:41:55.284Z,2.72
2023-05-23T16:44:21.894Z,2.25
2023-05-23T16:46:48.632Z,2.20
2023-05-23T16:49:15.246Z,2.35
2023-05-23T16:51:41.775Z,2.15
2023-05-23T16:54:08.922Z,2.22
2023-05-23T16:56:36.028Z,2.50
2023-05-23T16:59:02.531Z,2.45
2023-05-23T17:01:29.504Z,2.67
2023-05-23T17:03:56.778Z,2.70
2023-05-23T17:06:23.459Z,2.30
2023-05-23T17:08:50.042Z,2.50
2023-05-23T17:11:16.603Z,2.63
2023-05-23T17:13:44.309Z,2.90
2023-05-23T17:16:11.872Z,2.55
2023-05-23T17:18:38.514Z,2.78
2023-05-23T17:21:05.064Z,2.58
2023-05-23T17:23:31.622Z,2.60
2023-05-23T17:25:58.117Z,2.42
2023-05-23T17:28:24.649Z,2.60
2023-05-23T17:30:54.128Z,2.63
2023-05-23T17:33:20.634Z,2.30
2023-05-23T17:35:47.167Z,2.60
2023-05-23T17:38:14.321Z,2.70
2023-05-23T17:40:42.048Z,2.60
2023-05-23T17:43:09.103Z,2.20
2023-05-23T17:45:36.187Z,3.45
2023-05-23T17:48:03.561Z,3.63
2023-05-23T17:50:30.522Z,2.72
2023-05-23T17:52:57.337Z,2.50
2023-05-23T17:55:23.869Z,2.25
2023-05-23T17:57:50.531Z,1.98
2023-05-23T18:00:17.727Z,2.35
2023-05-23T18:02:44.342Z,2.22
2023-05-23T18:05:10.908Z,2.00
2023-05-23T18:07:37.938Z,2.42
2023-05-23T18:10:05.396Z,4.93
2023-05-23T18:12:32.332Z,2.50
2023-05-23T18:14:58.935Z,2.53
2023-05-23T18:17:25.669Z,2.50
2023-05-23T18:19:52.203Z,2.20
2023-05-23T18:22:19.888Z,2.40
2023-05-23T18:24:46.822Z,2.10
2023-05-23T18:27:13.357Z,1.95
2023-05-23T18:29:39.929Z,2.30
2023-05-23T18:32:06.548Z,2.45
2023-05-23T18:34:33.107Z,2.40
2023-05-23T18:36:59.674Z,2.50
2023-05-23T18:39:26.358Z,2.60
2023-05-23T18:41:52.854Z,2.28
2023-05-23T18:44:20.929Z,2.55
2023-05-23T18:46:47.844Z,2.50
2023-05-23T18:49:14.440Z,2.40
2023-05-23T18:51:42.228Z,2.15
2023-05-23T18:54:08.730Z,2.65
2023-05-23T18:56:35.671Z,2.33
2023-05-23T18:59:02.363Z,2.40
2023-05-23T19:01:28.998Z,2.22
2023-05-23T19:03:57.119Z,3.50
2023-05-23T19:06:23.956Z,2.00
2023-05-23T19:08:50.799Z,2.40
2023-05-23T19:11:17.336Z,2.25
2023-05-23T19:13:44.031Z,2.30
2023-05-23T19:16:10.644Z,2.30
2023-05-23T19:18:37.426Z,2.13
2023-05-23T19:21:04.080Z,2.80
2023-05-23T19:23:30.602Z,2.80
2023-05-23T19:25:57.107Z,2.45
2023-05-23T19:28:23.720Z,2.15
2023-05-23T19:30:50.323Z,2.60
2023-05-23T19:33:18.067Z,2.22
2023-05-23T19:35:44.911Z,2.17
2023-05-23T19:38:11.734Z,2.80
2023-05-23T19:40:38.377Z,3.25
2023-05-23T19:43:05.353Z,3.15
2023-05-23T19:45:31.846Z,3.30
2023-05-23T19:47:58.488Z,2.40
2023-05-23T19:50:25.252Z,2.47
2023-05-23T19:52:52.250Z,3.08
2023-05-23T19:55:18.835Z,2.78
2023-05-23T19:57:45.539Z,2.63
2023-05-23T20:00:14.703Z,2.58
2023-05-23T20:02:41.573Z,2.45
2023-05-23T20:05:08.527Z,2.70
2023-05-23T20:07:36.474Z,2.63
2023-05-23T20:10:03.487Z,2.80
2023-05-23T20:12:30.050Z,2.75
2023-05-23T20:14:57.479Z,2.83
2023-05-23T20:17:24.032Z,2.50
2023-05-23T20:19:50.682Z,2.45
2023-05-23T20:22:17.281Z,2.45
2023-05-23T20:24:43.830Z,2.60
2023-05-23T20:27:10.667Z,2.42
2023-05-23T20:29:37.523Z,2.33
2023-05-23T20:32:04.186Z,2.40
2023-05-23T20:34:31.792Z,2.40
2023-05-23T20:36:58.340Z,2.25
2023-05-23T20:39:24.906Z,2.00
2023-05-23T20:41:51.779Z,2.20
2023-05-23T20:44:18.396Z,2.53
2023-05-23T20:46:45.085Z,2.25
2023-05-23T20:49:11.734Z,2.63
2023-05-23T20:51:38.580Z,2.40
2023-05-23T20:54:05.642Z,2.72
2023-05-23T20:56:32.657Z,2.58
2023-05-23T20:59:01.974Z,2.88
2023-05-23T21:01:28.599Z,2.30
2023-05-23T21:03:55.571Z,2.67
2023-05-23T21:06:22.423Z,2.40
2023-05-23T21:08:48.999Z,2.60
2023-05-23T21:11:15.673Z,2.30
2023-05-23T21:13:42.270Z,2.22
2023-05-23T21:16:08.769Z,2.60
2023-05-23T21:18:35.317Z,2.20
2023-05-23T21:21:01.882Z,2.38
2023-05-23T21:23:28.419Z,2.47
2023-05-23T21:25:55.899Z,2.05
2023-05-23T21:28:22.478Z,2.08
2023-05-23T21:30:49.515Z,2.22
2023-05-23T21:33:16.201Z,2.00
2023-05-23T21:35:45.055Z,2.35
2023-05-23T21:38:11.582Z,2.42
2023-05-23T21:40:38.122Z,2.35
2023-05-23T21:43:04.623Z,2.15
2023-05-23T21:45:31.212Z,2.35
2023-05-23T21:47:57.824Z,2.30
2023-05-23T21:50:24.363Z,2.38
2023-05-23T21:52:50.924Z,2.20
2023-05-23T21:55:17.507Z,2.05
2023-05-23T21:57:44.046Z,2.38
2023-05-23T22:00:12.538Z,3.13
2023-05-23T22:02:39.793Z,2.10
2023-05-23T22:05:07.046Z,2.47
2023-05-23T22:07:33.600Z,2.75
2023-05-23T22:10:00.301Z,1.95
2023-05-23T22:12:26.894Z,2.35
2023-05-23T22:14:54.710Z,2.05
2023-05-23T22:17:22.737Z,2.10
2023-05-23T22:19:51.782Z,2.45
2023-05-23T22:22:18.955Z,2.10
2023-05-23T22:24:45.548Z,2.08
2023-05-23T22:27:12.293Z,2.22
2023-05-23T22:29:38.858Z,2.30
2023-05-23T22:32:05.550Z,2.80
2023-05-23T22:34:32.140Z,2.47
2023-05-23T22:37:00.264Z,2.75
2023-05-23T22:39:27.196Z,2.75
2023-05-23T22:41:53.903Z,2.78
2023-05-23T22:44:20.478Z,2.53
2023-05-23T22:46:47.120Z,2.22
2023-05-23T22:49:15.340Z,2.40
2023-05-23T22:51:42.064Z,2.47
2023-05-23T22:54:08.788Z,2.40
2023-05-23T22:56:35.493Z,2.50
2023-05-23T22:59:02.244Z,2.13
2023-05-23T23:01:29.939Z,2.65
2023-05-23T23:03:56.547Z,2.13
2023-05-23T23:06:23.042Z,2.08
2023-05-23T23:08:49.952Z,2.00
2023-05-23T23:11:16.581Z,2.65
2023-05-23T23:13:43.120Z,2.30
2023-05-23T23:16:09.789Z,2.60
2023-05-23T23:18:36.331Z,1.80
2023-05-23T23:21:02.890Z,2.35
2023-05-23T23:23:29.524Z,2.17
2023-05-23T23:25:56.124Z,2.22
2023-05-23T23:28:22.633Z,1.92
2023-05-23T23:30:49.210Z,2.33
2023-05-23T23:33:15.878Z,2.15
2023-05-23T23:35:45.350Z,2.10
2023-05-23T23:38:13.101Z,2.35
2023-05-23T23:40:39.707Z,2.13
2023-05-23T23:43:06.299Z,2.15
2023-05-23T23:45:32.886Z,2.70
2023-05-23T23:47:59.463Z,2.17
2023-05-23T23:50:26.800Z,2.20
2023-05-23T23:52:53.382Z,2.47
2023-05-23T23:55:19.968Z,2.22
2023-05-23T23:57:46.751Z,2.47
